Time;durP1;ratioP1;P1;durP2;ratioP2;P2;SDS_P1;SDS_P2;PMS_P1;PMS_P2;Temp;Humidity;BMP_temperature;BMP_pressure;BME280_temperature;BME280_humidity;BME280_pressure;Samples;Min_cycle;Max_cycle;Signal;HPM_P1;HPM_P2
2024/01/26 00:00:31;;;;;;;0.40;0.40;;;;;;;2.72;100.00;100525.44;4875956;29;20152;-70
2024/01/26 00:02:56;;;;;;;0.40;0.40;;;;;;;3.28;100.00;100622.31;4871540;29;20091;-71
2024/01/26 00:05:22;;;;;;;0.60;0.60;;;;;;;2.86;100.00;100536.25;4870479;29;20559;-70
2024/01/26 00:07:47;;;;;;;0.30;0.30;;;;;;;2.93;100.00;100546.88;4873759;29;20497;-70
2024/01/26 00:10:13;;;;;;;1.58;1.58;;;;;;;2.90;100.00;100532.91;4873597;29;20049;-70
2024/01/26 00:12:38;;;;;;;0.38;0.38;;;;;;;2.87;100.00;100535.41;4875178;29;20041;-70
2024/01/26 00:15:04;;;;;;;0.40;0.40;;;;;;;3.00;100.00;100557.41;4874887;29;20697;-71
2024/01/26 00:17:29;;;;;;;0.40;0.40;;;;;;;3.22;100.00;100587.53;4851715;29;20056;-70
2024/01/26 00:19:55;;;;;;;0.40;0.40;;;;;;;2.92;100.00;100536.44;4865441;29;20457;-70
2024/01/26 00:22:21;;;;;;;0.82;0.82;;;;;;;3.43;100.00;100608.97;4873214;29;20393;-70
2024/01/26 00:24:46;;;;;;;0.30;0.30;;;;;;;3.43;100.00;100619.34;4869350;29;20032;-70
2024/01/26 00:27:12;;;;;;;0.30;0.30;;;;;;;2.99;100.00;100538.38;4872602;29;20758;-70
2024/01/26 00:29:37;;;;;;;0.95;0.95;;;;;;;3.41;100.00;100614.94;4865395;29;20102;-71
2024/01/26 00:32:03;;;;;;;0.30;0.30;;;;;;;3.51;100.00;100623.06;4872755;29;20076;-70
2024/01/26 00:34:29;;;;;;;1.27;0.75;;;;;;;3.38;100.00;100616.59;4866803;29;20522;-70
2024/01/26 00:36:54;;;;;;;0.30;0.30;;;;;;;3.09;100.00;100591.41;4872961;29;20441;-71
2024/01/26 00:39:20;;;;;;;0.38;0.38;;;;;;;2.92;100.00;100557.16;4856455;29;20064;-69
2024/01/26 00:41:46;;;;;;;0.52;0.52;;;;;;;3.41;100.00;100638.28;4866783;29;20076;-70
2024/01/26 00:44:11;;;;;;;0.32;0.32;;;;;;;3.50;100.00;100641.16;4868581;29;20474;-70
2024/01/26 00:46:37;;;;;;;0.30;0.30;;;;;;;3.52;100.00;100652.47;4873560;29;20140;-70
2024/01/26 00:49:03;;;;;;;0.28;0.28;;;;;;;3.03;100.00;100552.34;4872464;29;20053;-70
2024/01/26 00:51:29;;;;;;;2.40;2.30;;;;;;;3.21;100.00;100620.34;4867754;29;20098;-70
2024/01/26 00:53:54;;;;;;;0.32;0.32;;;;;;;3.27;100.00;100653.38;4868412;29;20159;-69
2024/01/26 00:56:20;;;;;;;0.30;0.30;;;;;;;3.01;100.00;100583.38;4869216;29;20052;-70
2024/01/26 00:58:46;;;;;;;0.40;0.40;;;;;;;2.90;100.00;100566.59;4869007;29;20402;-71
2024/01/26 01:01:11;;;;;;;0.30;0.30;;;;;;;3.25;100.00;100653.31;4868954;29;20054;-70
2024/01/26 01:03:37;;;;;;;0.40;0.40;;;;;;;2.85;100.00;100602.72;4871801;29;20762;-72
2024/01/26 01:06:02;;;;;;;1.92;1.83;;;;;;;3.27;100.00;100646.47;4870886;29;20040;-72
2024/01/26 01:08:28;;;;;;;0.30;0.30;;;;;;;2.78;100.00;100568.78;4874071;29;20099;-71
2024/01/26 01:10:54;;;;;;;0.40;0.40;;;;;;;3.31;100.00;100611.16;4877716;29;20052;-72
2024/01/26 01:13:20;;;;;;;0.40;0.40;;;;;;;3.45;100.00;100638.44;4852681;29;20045;-72
2024/01/26 01:15:45;;;;;;;0.40;0.40;;;;;;;3.29;100.00;100599.84;4862631;29;20129;-72
2024/01/26 01:18:11;;;;;;;0.30;0.30;;;;;;;3.42;100.00;100630.56;4874354;29;20041;-71
2024/01/26 01:20:36;;;;;;;0.40;0.40;;;;;;;3.25;100.00;100606.63;4871996;29;20152;-71
2024/01/26 01:23:03;;;;;;;0.95;0.93;;;;;;;3.52;100.00;100631.72;4856961;29;20071;-72
2024/01/26 01:25:28;;;;;;;3.55;1.90;;;;;;;3.15;100.00;100548.44;4868324;29;20056;-72
2024/01/26 01:27:54;;;;;;;0.35;0.35;;;;;;;3.24;100.00;100581.56;4869711;29;20045;-72
2024/01/26 01:30:20;;;;;;;0.30;0.30;;;;;;;3.43;100.00;100618.47;4871397;29;20052;-70
2024/01/26 01:32:46;;;;;;;0.38;0.38;;;;;;;3.66;100.00;100626.97;4868293;29;20632;-71
2024/01/26 01:35:11;;;;;;;0.30;0.30;;;;;;;3.53;100.00;100621.38;4867039;29;20044;-69
2024/01/26 01:37:37;;;;;;;0.40;0.40;;;;;;;3.21;100.00;100558.13;4870168;29;20711;-70
2024/01/26 01:40:03;;;;;;;0.30;0.30;;;;;;;3.14;100.00;100540.63;4872586;29;20549;-70
2024/01/26 01:42:28;;;;;;;0.40;0.40;;;;;;;3.19;100.00;100545.97;4873739;29;20037;-71
2024/01/26 01:44:54;;;;;;;0.40;0.40;;;;;;;3.38;100.00;100576.81;4870002;29;20181;-71
2024/01/26 01:47:19;;;;;;;0.40;0.40;;;;;;;3.68;100.00;100613.22;4871091;29;20238;-71
2024/01/26 01:49:45;;;;;;;0.32;0.32;;;;;;;3.58;100.00;100605.97;4867437;29;20635;-70
2024/01/26 01:52:15;;;;;;;0.30;0.30;;;;;;;3.73;100.00;100621.16;4867999;29;20068;-71
2024/01/26 01:54:41;;;;;;;0.20;0.20;;;;;;;3.21;100.00;100533.88;4869910;29;20053;-72
2024/01/26 01:57:07;;;;;;;0.40;0.40;;;;;;;3.55;100.00;100604.16;4870436;29;20500;-71
2024/01/26 01:59:33;;;;;;;1.38;1.20;;;;;;;3.15;100.00;100527.69;4868643;29;20113;-72
2024/01/26 02:01:59;;;;;;;0.30;0.30;;;;;;;3.49;100.00;100606.56;4866598;29;20064;-72
2024/01/26 02:04:25;;;;;;;0.28;0.28;;;;;;;3.47;100.00;100603.03;4864972;29;20049;-71
2024/01/26 02:06:58;;;;;;;0.30;0.30;;;;;;;2.86;100.00;100534.53;4880374;29;20037;-71
2024/01/26 02:09:24;;;;;;;;;;;;;;;3.51;100.00;100614.38;4870843;29;20044;-71
2024/01/26 02:11:50;;;;;;;0.30;0.30;;;;;;;3.54;100.00;100611.91;4870541;29;20455;-70
2024/01/26 02:14:16;;;;;;;0.38;0.38;;;;;;;3.12;100.00;100552.66;4879932;29;20057;-70
2024/01/26 02:16:52;;;;;;;0.40;0.40;;;;;;;3.40;100.00;100606.28;4873350;29;20065;-70
2024/01/26 02:19:18;;;;;;;3.38;3.20;;;;;;;3.46;100.00;100600.38;4866489;29;20064;-70
2024/01/26 02:21:43;;;;;;;0.50;0.50;;;;;;;3.38;100.00;100607.94;4865871;29;20033;-71
2024/01/26 02:24:09;;;;;;;2.92;2.80;;;;;;;3.36;100.00;100607.88;4866889;29;20515;-69
2024/01/26 02:26:34;;;;;;;0.30;0.30;;;;;;;1.82;100.00;100332.56;4867489;29;20083;-72
2024/01/26 02:29:00;;;;;;;0.30;0.30;;;;;;;2.79;100.00;100498.88;4870188;29;20053;-70
2024/01/26 02:31:25;;;;;;;0.30;0.30;;;;;;;3.26;100.00;100592.88;4871483;29;20045;-71
2024/01/26 02:33:51;;;;;;;0.30;0.30;;;;;;;3.28;100.00;100611.06;4865268;29;20069;-70
2024/01/26 02:36:16;;;;;;;2.70;2.20;;;;;;;3.31;100.00;100609.44;4852661;29;20698;-70
2024/01/26 02:38:42;;;;;;;0.38;0.38;;;;;;;3.26;100.00;100595.44;4869784;29;20106;-70
2024/01/26 02:41:07;;;;;;;0.30;0.30;;;;;;;2.98;100.00;100552.19;4871048;29;20056;-70
2024/01/26 02:43:33;;;;;;;0.40;0.40;;;;;;;2.99;100.00;100597.13;4869938;29;20056;-70
2024/01/26 02:45:58;;;;;;;1.60;1.50;;;;;;;3.05;100.00;100603.41;4871328;29;20080;-71
2024/01/26 02:48:24;;;;;;;0.77;0.77;;;;;;;2.99;100.00;100598.00;4859722;29;20490;-69
2024/01/26 02:50:49;;;;;;;0.30;0.30;;;;;;;3.09;100.00;100594.00;4870106;29;20113;-71
2024/01/26 02:53:15;;;;;;;0.40;0.30;;;;;;;2.62;100.00;100536.28;4878159;29;20053;-72
2024/01/26 02:55:40;;;;;;;0.45;0.45;;;;;;;2.56;100.00;100513.66;4870047;29;20094;-72
2024/01/26 02:58:06;;;;;;;0.40;0.40;;;;;;;2.36;100.00;100538.84;4864977;29;20057;-72
2024/01/26 03:00:31;;;;;;;0.82;0.82;;;;;;;2.72;100.00;100562.56;4865661;29;20564;-71
2024/01/26 03:02:57;;;;;;;0.40;0.40;;;;;;;3.06;100.00;100609.47;4866945;29;20201;-71
2024/01/26 03:05:22;;;;;;;5.05;0.52;;;;;;;3.01;100.00;100611.03;4862392;29;20405;-73
2024/01/26 03:07:48;;;;;;;0.40;0.40;;;;;;;2.67;100.00;100603.00;4864766;29;20053;-71
2024/01/26 03:10:13;;;;;;;0.40;0.40;;;;;;;1.76;100.00;100411.69;4880852;29;20140;-71
2024/01/26 03:12:39;;;;;;;0.30;0.30;;;;;;;2.82;100.00;100588.78;4864094;29;20128;-72
2024/01/26 03:15:06;;;;;;;0.30;0.30;;;;;;;2.51;100.00;100538.53;4863614;29;20704;-71
2024/01/26 03:17:31;;;;;;;0.25;0.25;;;;;;;2.50;100.00;100529.84;4864671;29;20056;-71
2024/01/26 03:19:58;;;;;;;4.25;2.05;;;;;;;2.49;100.00;100527.22;4872255;29;20063;-70
2024/01/26 03:22:23;;;;;;;0.47;0.47;;;;;;;2.97;100.00;100607.44;4870935;29;20473;-71
2024/01/26 03:24:49;;;;;;;2.65;2.55;;;;;;;2.92;100.00;100602.09;4871542;29;20102;-70
2024/01/26 03:27:14;;;;;;;5.68;3.13;;;;;;;3.04;100.00;100606.81;4871323;29;20048;-70
2024/01/26 03:29:40;;;;;;;2.17;1.88;;;;;;;3.00;100.00;100604.97;4872827;29;20422;-70
2024/01/26 03:32:06;;;;;;;0.28;0.28;;;;;;;3.04;100.00;100613.72;4869933;29;20060;-70
2024/01/26 03:34:31;;;;;;;0.40;0.40;;;;;;;3.05;100.00;100611.19;4854675;29;20041;-71
2024/01/26 03:36:57;;;;;;;0.40;0.40;;;;;;;3.02;100.00;100600.72;4852322;29;20071;-70
2024/01/26 03:39:23;;;;;;;0.43;0.43;;;;;;;3.10;100.00;100598.38;4871651;29;20066;-70
2024/01/26 03:41:49;;;;;;;3.15;2.95;;;;;;;3.13;100.00;100601.94;4868523;29;20057;-72
2024/01/26 03:44:15;;;;;;;1.30;1.30;;;;;;;2.58;100.00;100505.94;4852289;29;20060;-70
2024/01/26 03:46:42;;;;;;;0.25;0.25;;;;;;;3.14;100.00;100626.19;4865562;29;20488;-70
2024/01/26 03:49:09;;;;;;;0.30;0.30;;;;;;;3.07;100.00;100612.13;4851557;29;20549;-70
2024/01/26 03:51:37;;;;;;;0.30;0.30;;;;;;;2.20;100.00;100469.25;4868466;29;20798;-71
2024/01/26 03:54:03;;;;;;;0.30;0.30;;;;;;;2.57;100.00;100528.34;4871042;29;20113;-72
2024/01/26 03:56:29;;;;;;;0.40;0.40;;;;;;;3.17;100.00;100606.41;4869039;29;20057;-71
2024/01/26 03:58:54;;;;;;;0.30;0.30;;;;;;;3.05;100.00;100606.00;4870338;29;20069;-72
2024/01/26 04:01:20;;;;;;;0.40;0.40;;;;;;;2.25;100.00;100478.09;4873356;29;20425;-70
2024/01/26 04:03:46;;;;;;;0.47;0.47;;;;;;;2.36;100.00;100544.03;4864038;29;20261;-70
2024/01/26 04:06:12;;;;;;;0.55;0.55;;;;;;;2.49;100.00;100571.25;4869845;29;20044;-70
2024/01/26 04:08:37;;;;;;;0.65;0.65;;;;;;;2.40;100.00;100543.31;4872315;29;20056;-71
2024/01/26 04:11:03;;;;;;;2.15;2.05;;;;;;;3.01;100.00;100622.28;4851776;29;20061;-70
2024/01/26 04:13:28;;;;;;;0.30;0.30;;;;;;;3.00;100.00;100625.72;4865656;29;20528;-72
2024/01/26 04:15:54;;;;;;;9.65;5.63;;;;;;;2.99;100.00;100607.50;4865843;29;20036;-70
2024/01/26 04:18:19;;;;;;;0.43;0.43;;;;;;;3.00;100.00;100620.53;4854955;29;20102;-69
2024/01/26 04:20:46;;;;;;;4.82;4.43;;;;;;;3.01;100.00;100626.59;4872813;29;20061;-69
2024/01/26 04:23:12;;;;;;;0.50;0.50;;;;;;;2.72;100.00;100575.53;4868546;29;20048;-69
2024/01/26 04:25:37;;;;;;;0.30;0.30;;;;;;;2.95;100.00;100625.56;4864762;29;20112;-72
2024/01/26 04:28:03;;;;;;;0.40;0.40;;;;;;;2.61;100.00;100563.91;4868834;29;20196;-71
2024/01/26 04:30:29;;;;;;;0.32;0.32;;;;;;;2.99;100.00;100625.66;4867037;29;20481;-69
2024/01/26 04:32:54;;;;;;;0.35;0.35;;;;;;;2.51;100.00;100564.44;4865448;29;20061;-69
2024/01/26 04:35:20;;;;;;;0.38;0.38;;;;;;;1.67;100.00;100419.97;4851768;29;20406;-69
2024/01/26 04:37:45;;;;;;;2.28;2.08;;;;;;;2.50;100.00;100580.78;4867310;29;20545;-70
2024/01/26 04:40:11;;;;;;;0.30;0.30;;;;;;;2.54;100.00;100593.00;4866224;29;20053;-70
2024/01/26 04:42:36;;;;;;;0.70;0.70;;;;;;;2.87;100.00;100654.63;4869268;29;20083;-70
2024/01/26 04:45:02;;;;;;;0.40;0.40;;;;;;;2.30;100.00;100577.50;4865404;29;20045;-71
2024/01/26 04:47:28;;;;;;;0.30;0.30;;;;;;;2.51;100.00;100600.69;4880673;29;20049;-69
2024/01/26 04:49:54;;;;;;;0.20;0.20;;;;;;;2.57;100.00;100644.91;4865901;29;20524;-71
2024/01/26 04:52:19;;;;;;;0.35;0.35;;;;;;;2.74;100.00;100658.50;4865383;29;20458;-71
2024/01/26 04:54:46;;;;;;;1.00;1.00;;;;;;;2.67;100.00;100648.72;4864366;29;20075;-68
2024/01/26 04:57:12;;;;;;;0.30;0.30;;;;;;;2.70;100.00;100639.34;4872794;29;20049;-69
2024/01/26 04:59:38;;;;;;;0.38;0.38;;;;;;;2.28;100.00;100571.38;4869334;29;20592;-71
2024/01/26 05:02:03;;;;;;;0.40;0.40;;;;;;;2.77;100.00;100660.31;4870153;29;20099;-69
2024/01/26 05:04:29;;;;;;;0.50;0.50;;;;;;;2.63;100.00;100657.22;4866867;29;20065;-70
2024/01/26 05:06:55;;;;;;;2.25;2.15;;;;;;;2.14;100.00;100557.94;4852302;29;20076;-72
2024/01/26 05:09:22;;;;;;;0.65;0.65;;;;;;;1.65;100.00;100588.03;4869699;29;20041;-70
2024/01/26 05:11:47;;;;;;;1.05;0.98;;;;;;;2.05;100.00;100633.53;4865036;29;20045;-71
2024/01/26 05:14:13;;;;;;;0.52;0.52;;;;;;;1.92;100.00;100576.06;4871541;29;20079;-71
2024/01/26 05:16:38;;;;;;;0.30;0.30;;;;;;;1.81;100.00;100561.03;4867005;29;20398;-71
2024/01/26 05:19:04;;;;;;;0.30;0.30;;;;;;;1.83;100.00;100600.78;4868225;29;20899;-71
2024/01/26 05:21:30;;;;;;;3.10;3.00;;;;;;;2.12;100.00;100645.00;4872412;29;20075;-71
2024/01/26 05:23:55;;;;;;;5.80;2.28;;;;;;;2.32;100.00;100661.28;4870763;29;20774;-72
2024/01/26 05:26:21;;;;;;;0.30;0.30;;;;;;;2.19;100.00;100659.94;4866274;29;20045;-71
2024/01/26 05:28:46;;;;;;;0.20;0.20;;;;;;;2.22;100.00;100656.56;4865446;29;20052;-70
2024/01/26 05:31:12;;;;;;;1.20;1.20;;;;;;;2.42;100.00;100671.16;4859202;29;20132;-70
2024/01/26 05:33:38;;;;;;;0.35;0.35;;;;;;;2.04;100.00;100636.94;4864423;29;20041;-71
2024/01/26 05:36:04;;;;;;;2.58;2.47;;;;;;;2.04;100.00;100597.25;4868313;29;20045;-70
2024/01/26 05:38:29;;;;;;;0.40;0.40;;;;;;;2.64;100.00;100685.75;4865017;29;20104;-70
2024/01/26 05:40:56;;;;;;;0.30;0.30;;;;;;;2.18;100.00;100596.06;4866793;29;20092;-70
2024/01/26 05:43:21;;;;;;;0.35;0.35;;;;;;;2.01;100.00;100592.81;4864127;29;20056;-70
2024/01/26 05:45:47;;;;;;;0.30;0.30;;;;;;;2.66;100.00;100697.06;4869889;29;20045;-70
2024/01/26 05:48:12;;;;;;;5.50;5.10;;;;;;;2.69;100.00;100694.59;4868419;29;20093;-70
2024/01/26 05:50:38;;;;;;;0.40;0.40;;;;;;;2.72;100.00;100709.38;4864582;29;20052;-70
2024/01/26 05:53:04;;;;;;;0.30;0.30;;;;;;;2.67;100.00;100714.38;4867416;29;20623;-70
2024/01/26 05:55:30;;;;;;;0.50;0.50;;;;;;;2.15;100.00;100624.41;4863021;29;20868;-69
2024/01/26 05:57:56;;;;;;;0.40;0.40;;;;;;;2.61;100.00;100703.78;4866293;29;20084;-70
2024/01/26 06:00:21;;;;;;;3.85;3.65;;;;;;;2.70;100.00;100718.78;4868843;29;20451;-71
2024/01/26 06:02:47;;;;;;;0.40;0.40;;;;;;;2.00;100.00;100621.25;4867239;29;20531;-71
2024/01/26 06:05:13;;;;;;;0.40;0.40;;;;;;;2.13;100.00;100640.69;4860313;29;20054;-69
2024/01/26 06:07:38;;;;;;;0.32;0.32;;;;;;;2.33;100.00;100663.91;4862607;29;20060;-71
2024/01/26 06:10:05;;;;;;;0.40;0.40;;;;;;;2.47;100.00;100734.34;4864691;29;20053;-69
2024/01/26 06:12:30;;;;;;;1.75;1.65;;;;;;;2.60;100.00;100720.16;4866462;29;20533;-69
2024/01/26 06:14:56;;;;;;;2.35;2.25;;;;;;;2.61;100.00;100752.13;4862813;29;20076;-70
2024/01/26 06:17:22;;;;;;;0.47;0.47;;;;;;;2.13;100.00;100646.78;4867716;29;20854;-68
2024/01/26 06:19:47;;;;;;;13.13;9.27;;;;;;;2.66;100.00;100735.03;4867601;29;20061;-73
2024/01/26 06:22:13;;;;;;;0.30;0.30;;;;;;;2.50;100.00;100731.00;4866037;29;20409;-71
2024/01/26 06:24:38;;;;;;;1.98;0.95;;;;;;;1.98;100.00;100647.06;4875369;29;20477;-70
2024/01/26 06:27:04;;;;;;;0.52;0.52;;;;;;;2.05;100.00;100651.63;4864913;29;20387;-72
2024/01/26 06:29:29;;;;;;;0.40;0.40;;;;;;;2.65;100.00;100751.44;4862202;29;20128;-70
2024/01/26 06:31:59;;;;;;;0.30;0.30;;;;;;;1.97;100.00;100640.13;4858931;29;20409;-71
2024/01/26 06:34:25;;;;;;;2.58;2.47;;;;;;;2.31;100.00;100687.97;4863178;29;20061;-70
2024/01/26 06:36:51;;;;;;;6.78;2.53;;;;;;;2.80;100.00;100774.41;4850294;29;20410;-70
2024/01/26 06:39:16;;;;;;;5.47;3.45;;;;;;;2.72;100.00;100775.03;4868185;29;20064;-70
2024/01/26 06:41:43;;;;;;;3.03;2.88;;;;;;;1.83;100.00;100675.81;4868477;29;20049;-70
2024/01/26 06:44:09;;;;;;;1.33;1.23;;;;;;;2.33;100.00;100715.69;4865065;29;20551;-71
2024/01/26 06:46:34;;;;;;;0.55;0.55;;;;;;;2.72;100.00;100768.97;4857704;29;20077;-71
2024/01/26 06:49:02;;;;;;;0.30;0.30;;;;;;;2.58;100.00;100739.06;4860906;29;22057;-71
2024/01/26 06:51:27;;;;;;;0.30;0.30;;;;;;;2.64;100.00;100768.66;4864191;29;20136;-71
2024/01/26 06:53:55;;;;;;;0.47;0.47;;;;;;;2.25;100.00;100680.00;4860577;29;20075;-70
2024/01/26 06:56:20;;;;;;;0.50;0.50;;;;;;;2.39;100.00;100696.03;4863948;29;20045;-71
2024/01/26 06:58:46;;;;;;;0.32;0.32;;;;;;;2.80;100.00;100759.75;4869385;29;20071;-72
2024/01/26 07:01:11;;;;;;;0.80;0.77;;;;;;;2.95;100.00;100775.88;4871909;29;20102;-71
2024/01/26 07:03:37;;;;;;;0.30;0.30;;;;;;;2.50;100.00;100713.72;4873118;29;20116;-71
2024/01/26 07:06:02;;;;;;;1.85;1.75;;;;;;;2.72;100.00;100763.78;4871975;29;20028;-71
2024/01/26 07:08:28;;;;;;;0.50;0.50;;;;;;;3.03;100.00;100783.06;4869081;29;20080;-70
2024/01/26 07:10:53;;;;;;;0.47;0.47;;;;;;;3.03;100.00;100776.16;4867037;29;20053;-72
2024/01/26 07:13:19;;;;;;;1.20;1.13;;;;;;;3.14;100.00;100785.19;4869451;29;20523;-71
2024/01/26 07:15:44;;;;;;;0.45;0.45;;;;;;;3.14;100.00;100785.19;4871639;29;20081;-72
2024/01/26 07:18:10;;;;;;;0.85;0.82;;;;;;;2.87;100.00;100717.69;4867936;29;20047;-71
2024/01/26 07:20:36;;;;;;;0.50;0.50;;;;;;;3.37;100.00;100795.50;4870194;29;20064;-71
2024/01/26 07:23:01;;;;;;;0.75;0.75;;;;;;;2.99;100.00;100765.59;4871350;29;20152;-70
2024/01/26 07:25:27;;;;;;;0.32;0.32;;;;;;;2.98;100.00;100808.81;4864597;29;20085;-69
2024/01/26 07:27:53;;;;;;;0.30;0.30;;;;;;;2.77;100.00;100709.53;4867557;29;20033;-71
2024/01/26 07:30:19;;;;;;;2.55;2.40;;;;;;;3.28;100.00;100814.22;4852352;29;20434;-71
2024/01/26 07:32:45;;;;;;;0.65;0.55;;;;;;;3.17;100.00;100805.16;4869379;29;20072;-70
2024/01/26 07:35:10;;;;;;;1.02;1.02;;;;;;;2.74;100.00;100752.66;4869935;29;20480;-70
2024/01/26 07:37:36;;;;;;;15.80;12.20;;;;;;;3.22;100.00;100776.81;4871099;29;20485;-72
2024/01/26 07:40:04;;;;;;;1.95;1.85;;;;;;;3.30;100.00;100827.22;4884936;29;20109;-71
2024/01/26 07:42:30;;;;;;;13.98;8.82;;;;;;;3.10;100.00;100769.47;4876455;29;20093;-72
2024/01/26 07:44:56;;;;;;;3.50;0.75;;;;;;;3.50;100.00;100807.19;4869464;29;20057;-71
2024/01/26 07:47:22;;;;;;;0.40;0.40;;;;;;;3.87;100.00;100839.59;4875370;29;20710;-69
2024/01/26 07:49:48;;;;;;;1.45;1.42;;;;;;;4.11;100.00;100853.41;4871867;29;20052;-70
2024/01/26 07:52:15;;;;;;;5.95;5.70;;;;;;;3.79;100.00;100844.50;4854404;29;20490;-70
2024/01/26 07:54:40;;;;;;;1.48;1.40;;;;;;;4.05;100.00;100870.47;4870359;29;20064;-71
2024/01/26 07:57:06;;;;;;;0.32;0.32;;;;;;;3.93;100.00;100858.88;4869743;29;20445;-71
2024/01/26 07:59:32;;;;;;;2.08;1.98;;;;;;;4.19;100.00;100859.75;4869104;29;20457;-71
2024/01/26 08:01:57;;;;;;;0.52;0.52;;;;;;;3.32;100.00;100802.22;4865987;29;20527;-72
2024/01/26 08:04:23;;;;;;;0.30;0.30;;;;;;;3.35;100.00;100792.00;4868304;29;20405;-71
2024/01/26 08:06:48;;;;;;;0.32;0.32;;;;;;;3.81;100.00;100874.88;4874711;29;20098;-71
2024/01/26 08:09:14;;;;;;;0.40;0.40;;;;;;;3.44;100.00;100800.09;4873495;29;20055;-70
2024/01/26 08:11:39;;;;;;;0.63;0.47;;;;;;;3.76;100.00;100870.38;4874759;29;20049;-71
2024/01/26 08:14:05;;;;;;;0.75;0.70;;;;;;;3.75;100.00;100864.31;4875263;29;20124;-71
2024/01/26 08:16:30;;;;;;;3.97;3.60;;;;;;;3.80;100.00;100869.66;4872457;29;20513;-71
2024/01/26 08:18:56;;;;;;;0.25;0.25;;;;;;;3.78;100.00;100884.28;4874820;29;20591;-72
2024/01/26 08:21:22;;;;;;;0.52;0.52;;;;;;;3.56;100.00;100846.34;4875019;29;20036;-71
2024/01/26 08:23:48;;;;;;;3.42;3.22;;;;;;;3.77;100.00;100909.38;4872900;29;20057;-70
2024/01/26 08:26:14;;;;;;;5.80;5.35;;;;;;;3.61;100.00;100913.97;4857251;29;20045;-70
2024/01/26 08:28:40;;;;;;;0.95;0.73;;;;;;;3.28;100.00;100852.25;4874421;29;20077;-71
2024/01/26 08:31:05;;;;;;;0.40;0.40;;;;;;;3.74;100.00;100934.31;4874043;29;20049;-74
2024/01/26 08:33:31;;;;;;;0.30;0.30;;;;;;;3.51;100.00;100930.88;4873835;29;20044;-70
2024/01/26 08:35:57;;;;;;;1.98;1.88;;;;;;;3.46;100.00;100942.81;4872611;29;20060;-73
2024/01/26 08:38:23;;;;;;;0.30;0.30;;;;;;;3.24;100.00;100931.63;4870386;29;20534;-71
2024/01/26 08:40:49;;;;;;;1.33;1.25;;;;;;;3.30;100.00;100957.81;4874409;29;20052;-71
2024/01/26 08:43:14;;;;;;;1.00;1.00;;;;;;;2.63;100.00;100856.69;4871529;29;20061;-70
2024/01/26 08:45:40;;;;;;;0.63;0.63;;;;;;;2.88;100.00;100874.06;4856971;29;20520;-71
2024/01/26 08:48:06;;;;;;;1.48;1.38;;;;;;;2.86;100.00;100884.38;4872204;29;20127;-70
2024/01/26 08:50:31;;;;;;;0.47;0.47;;;;;;;3.75;100.00;100969.84;4873036;29;20049;-71
2024/01/26 08:52:58;;;;;;;0.40;0.40;;;;;;;3.17;100.00;100868.28;4873879;29;20056;-71
2024/01/26 08:55:23;;;;;;;0.30;0.30;;;;;;;3.76;100.00;100961.22;4872647;29;20084;-71
2024/01/26 08:57:50;;;;;;;0.40;0.40;;;;;;;3.79;100.00;100935.34;4870741;29;20130;-71
2024/01/26 09:00:19;;;;;;;1.50;1.40;;;;;;;3.66;100.00;100871.75;4874270;29;20040;-71
2024/01/26 09:02:45;;;;;;;0.32;0.32;;;;;;;4.17;100.00;100954.91;4873510;29;20489;-70
2024/01/26 09:05:11;;;;;;;0.85;0.85;;;;;;;4.15;100.00;100953.09;4873717;29;20101;-71
2024/01/26 09:07:37;;;;;;;0.38;0.30;;;;;;;4.56;100.00;100961.38;4872905;29;20049;-71
2024/01/26 09:10:03;;;;;;;0.38;0.38;;;;;;;3.95;100.00;100877.97;4871586;29;20429;-71
2024/01/26 09:12:29;;;;;;;1.42;1.35;;;;;;;4.34;100.00;100962.38;4872371;29;20761;-70
2024/01/26 09:14:55;;;;;;;0.30;0.30;;;;;;;3.93;100.00;100876.13;4872144;29;20033;-70
2024/01/26 09:17:20;;;;;;;0.52;0.52;;;;;;;4.60;100.00;100991.84;4871921;29;20041;-71
2024/01/26 09:19:46;;;;;;;0.57;0.57;;;;;;;4.48;100.00;100989.72;4873558;29;20144;-71
2024/01/26 09:22:12;;;;;;;0.80;0.80;;;;;;;4.20;100.00;100987.88;4872558;29;20096;-72
2024/01/26 09:24:37;;;;;;;0.88;0.88;;;;;;;3.80;100.00;100924.16;4871252;29;20041;-71
2024/01/26 09:27:03;;;;;;;0.30;0.30;;;;;;;3.79;100.00;100901.63;4857175;29;20531;-70
2024/01/26 09:29:29;;;;;;;5.82;5.47;;;;;;;4.15;100.00;100977.34;4873289;29;20045;-71
2024/01/26 09:31:56;;;;;;;3.13;1.85;;;;;;;4.39;100.00;100987.69;4850777;29;20060;-72
2024/01/26 09:34:22;;;;;;;0.47;0.47;;;;;;;4.17;100.00;100905.56;4868817;29;20052;-71
2024/01/26 09:36:49;;;;;;;0.30;0.30;;;;;;;4.15;100.00;100955.69;4873055;29;20088;-70
2024/01/26 09:39:15;;;;;;;3.63;3.42;;;;;;;3.71;100.00;100914.31;4871773;29;20652;-70
2024/01/26 09:41:41;;;;;;;0.30;0.30;;;;;;;3.83;100.00;100921.66;4872407;29;20037;-71
2024/01/26 09:44:06;;;;;;;0.30;0.30;;;;;;;4.58;100.00;100973.59;4873188;29;20068;-70
2024/01/26 09:46:33;;;;;;;0.30;0.30;;;;;;;4.81;100.00;100986.47;4873438;29;20416;-71
2024/01/26 09:48:59;;;;;;;0.65;0.65;;;;;;;4.20;100.00;100900.44;4872202;29;20047;-70
2024/01/26 09:51:26;;;;;;;0.43;0.43;;;;;;;4.66;100.00;100906.28;4872896;29;20047;-72
2024/01/26 09:53:58;;;;;;;1.73;1.63;;;;;;;5.19;100.00;100986.81;4874540;29;20041;-71
2024/01/26 09:56:26;;;;;;;0.30;0.30;;;;;;;5.10;100.00;100950.09;4854147;29;20175;-72
2024/01/26 09:58:52;;;;;;;0.32;0.32;;;;;;;5.17;100.00;100946.84;4872944;29;20485;-71
2024/01/26 10:01:21;;;;;;;0.35;0.35;;;;;;;5.32;100.00;100967.25;4870454;29;20052;-71
2024/01/26 10:03:47;;;;;;;0.77;0.77;;;;;;;5.29;100.00;100963.72;4871017;29;21943;-71
2024/01/26 10:06:12;;;;;;;0.40;0.40;;;;;;;4.85;100.00;100968.41;4872013;29;20037;-70
2024/01/26 10:08:41;;;;;;;0.40;0.40;;;;;;;4.49;100.00;100891.84;4851237;29;20057;-71
2024/01/26 10:11:08;;;;;;;0.40;0.40;;;;;;;5.20;100.00;100960.84;4860400;29;20057;-71
2024/01/26 10:13:34;;;;;;;3.25;3.05;;;;;;;5.49;100.00;100953.91;4868739;29;20097;-71
2024/01/26 10:16:06;;;;;;;0.30;0.30;;;;;;;5.52;100.00;100944.41;4869947;29;20056;-71
2024/01/26 10:18:43;;;;;;;0.43;0.43;;;;;;;5.66;100.00;100954.38;4869210;29;20033;-70
2024/01/26 10:21:10;;;;;;;0.35;0.35;;;;;;;4.92;100.00;100886.28;4870926;29;20152;-72
2024/01/26 10:23:35;;;;;;;0.38;0.38;;;;;;;5.57;100.00;100945.41;4871333;29;20052;-73
2024/01/26 10:26:01;;;;;;;0.30;0.30;;;;;;;5.49;100.00;100948.69;4869272;29;20098;-72
2024/01/26 10:28:27;;;;;;;0.22;0.22;;;;;;;4.86;100.00;100964.97;4866347;29;20431;-71
2024/01/26 10:30:52;;;;;;;0.40;0.40;;;;;;;5.31;100.00;100966.34;4872288;29;20142;-70
2024/01/26 10:33:22;;;;;;;0.70;0.70;;;;;;;5.26;100.00;100949.72;4872999;29;20033;-71
2024/01/26 10:35:50;;;;;;;0.57;0.50;;;;;;;4.59;100.00;100886.13;4870978;29;20083;-72
2024/01/26 10:38:16;;;;;;;0.32;0.32;;;;;;;5.60;100.00;100941.19;4868289;29;20135;-71
2024/01/26 10:40:43;;;;;;;0.30;0.30;;;;;;;5.80;100.00;100941.75;4870186;29;20052;-70
2024/01/26 10:43:10;;;;;;;7.45;6.70;;;;;;;5.26;100.00;100911.56;4867980;29;20476;-70
2024/01/26 10:45:37;;;;;;;0.30;0.30;;;;;;;5.09;100.00;100845.19;4886110;29;20119;-71
2024/01/26 10:48:07;;;;;;;0.40;0.40;;;;;;;5.45;100.00;100907.78;4872101;29;20064;-71
2024/01/26 10:50:35;;;;;;;0.50;0.50;;;;;;;4.88;100.00;100868.81;4863266;29;20041;-71
2024/01/26 10:53:04;;;;;;;1.50;1.45;;;;;;;5.39;100.00;100904.16;4870731;29;20497;-71
2024/01/26 10:55:31;;;;;;;0.50;0.50;;;;;;;5.43;100.00;100914.69;4869757;29;20101;-72
2024/01/26 10:57:57;;;;;;;0.30;0.30;;;;;;;5.46;100.00;100872.25;4875617;29;20053;-72
2024/01/26 11:00:24;;;;;;;0.47;0.47;;;;;;;5.55;100.00;100931.47;4872104;29;20040;-70
2024/01/26 11:02:49;;;;;;;0.45;0.45;;;;;;;5.33;100.00;100916.97;4875290;29;20566;-71
2024/01/26 11:05:17;;;;;;;0.90;0.90;;;;;;;5.63;100.00;100948.22;4870282;29;20056;-71
2024/01/26 11:07:43;;;;;;;0.40;0.40;;;;;;;4.95;100.00;100903.72;4861197;29;20518;-71
2024/01/26 11:10:15;;;;;;;0.30;0.30;;;;;;;5.18;100.00;100954.72;4871678;29;20090;-72
2024/01/26 11:12:40;;;;;;;0.30;0.30;;;;;;;5.26;100.00;100954.94;4870536;29;20168;-72
2024/01/26 11:15:06;;;;;;;0.40;0.40;;;;;;;5.21;100.00;100939.19;4871712;29;20103;-72
2024/01/26 11:17:45;;;;;;;0.60;0.60;;;;;;;4.53;100.00;100930.09;4868278;29;20418;-70